Hilo, HI

1:19 AM HST on March 28, 2015 (GMT -1000)
Hilo International | Change Station
CLOSE
Current Station
Airport
Location: Hilo,
Elevation: 36 ft
Nearby Weather Stations

Elev 36 ft 19.72 °N, 155.05 °W | Updated 26 minutes ago

Mostly Cloudy
Mostly Cloudy
67 °F
Feels Like 67 °F
N
6
Wind Variable Wind from WSW

Today
High -- | Low -- °F
--% Chance of Precip.
Yesterday
High -- | Low -- °F
Precip. -- in
6:17 AM 6:33 PM
First Quarter, 61% visible
Pressure 30.17 in
Visibility 10.0 miles
Clouds Mostly Cloudy 6000 ft
Dew Point 58 °F
Humidity 73%
Rainfall 0.00 in
Snow Depth Not available.
UV 0 out of 12
Pollen Not available.
PM2.5 Good
Flu Activity Regional
METAR PHTO 281053Z 24005KT 10SM BKN060 19/14 A3017 RMK AO2 SLP216 T01940144

More Conditions Fewer Conditions

Pressure 30.17 in
Visibility 10.0 miles
Clouds Mostly Cloudy 6000 ft
Dew Point 58 °F
Humidity 73%
Rainfall 0.00 in
Snow Depth Not available.
UV 0 out of 12
Pollen Not available.
PM2.5 Good
Flu Activity Regional
METAR PHTO 281053Z 24005KT 10SM BKN060 19/14 A3017 RMK AO2 SLP216 T01940144

More Conditions Fewer Conditions

10-Day Weather Forecast

Almanac

Astronomy

Mar. 28, 2015 Rise Set
Actual Time 6:17 AM HST 6:33 PM HST
Civil Twilight 5:55 AM HST 6:55 PM HST
Nautical Twilight 5:29 AM HST 7:21 PM HST
Astronomical Twilight 5:03 AM HST 7:46 PM HST
Moon 1:24 PM HST 1:48 AM HST
Length of Visible Light 13h 00m
Length of Day
12h 15m
Tomorrow will be 1m 7s longer.
First Quarter, 61% of the Moon is Illuminated
Today
First Quarter
Apr 4
Full
Apr 11
Last Quarter
Apr 18
New
Apr 25
First Quarter

Today's Extremes

State Highs State Lows

Community

WunderPhotos

Upload Photos

1,808,956 photos uploaded!

Nearby

Air Quality

  Air Quality AQ Index Pollutant
Yesterday Good
PM2.5
Current Good
PM2.5

Snow Depth

Station Depth Elevation
No new snow has been reported.

Earthquake Activity

City Distance Mag. Time & Date
No recent earthquake activity has been reported nearby.
Minimum magnitude displayed is 2.5.

Coastal Water Temperatures

Place Temperature
No Stations Reporting

Nearby Weather Stations